Accueil
METAR-TAF:

METAR-TAF

Aéroports :

Aéroport de Lydd

Lydd, Angleterre

latitude: 50-57N, longitude: 000-56E, altitude: 3 m

Observation

Le bulletin a été fait il y a 29 minutes, à 17:50 UTC
Vent 13 kt de est/nord-est
Température 18°C
Humidité 73%
Pression 1019 hPa
Visibilité 10 km ou plus

METAR: EGMD 151750Z AUTO 07013KT 9999 NCD 18/13 Q1019

Heure: 19:19 (18:19 UTC)

Prévision

Le bulletin a été fait il y a 1 heure et 20 minutes, à 16:59 UTC
Prévision valable du 15 à 18 UTC au 16 à 03 UTC
Vent 10 kt de est
Visibilité 10 km ou plus
Quelques nuages à une hauteur de 3500 ft

TAF: EGMD 151659Z 1518/1603 10010KT 9999 FEW035

Observations et prévisions météorologiques de plus de 4000 aéroports (messages METAR et TAF).

Les stations disponibles sont représentées par des disques jaunes et rouges sur la carte.

Passer la souris dessus pour voir le nom de la station.

Cliquer dessus pour voir les observations et prévisions météorologiques.

Pour changer de carte: cliquez sur les boutons verts avec une croix noire pour zoomer, sur le bouton vert avec un tiret pour effectuer un zoom arrière, ou sur les flèches vertes pour les cartes adjacentes.


METAR-TAF: